Time;durP1;ratioP1;P1;durP2;ratioP2;P2;SDS_P1;SDS_P2;PMS_P1;PMS_P2;Temp;Humidity;BMP_temperature;BMP_pressure;BME280_temperature;BME280_humidity;BME280_pressure;Samples;Min_cycle;Max_cycle;Signal;HPM_P1;HPM_P2
2024/04/21 00:02:41;;;;;;;6.60;2.00;;;-1.50;99.90;;;;;;1898979;73;25231;-87
2024/04/21 00:05:29;;;;;;;3.90;1.90;;;-1.60;99.90;;;;;;1898591;74;25259;-86
2024/04/21 00:10:57;;;;;;;9.20;2.27;;;-1.70;99.90;;;;;;1932880;72;27087;-87
2024/04/21 00:13:46;;;;;;;5.57;1.90;;;-1.80;99.90;;;;;;1912933;74;25881;-87
2024/04/21 00:16:34;;;;;;;5.47;2.23;;;-1.80;99.90;;;;;;1912487;74;25337;-87
2024/04/21 00:19:22;;;;;;;4.03;2.13;;;-1.80;99.90;;;;;;1911271;74;25299;-87
2024/04/21 00:22:11;;;;;;;3.53;1.90;;;-1.80;99.90;;;;;;1914669;74;25243;-86
2024/04/21 00:25:00;;;;;;;6.37;2.33;;;-1.90;99.90;;;;;;1915216;74;25276;-86
2024/04/21 00:27:48;;;;;;;8.33;2.00;;;-2.00;99.90;;;;;;1913919;74;25256;-87
2024/04/21 00:30:37;;;;;;;6.40;1.80;;;-2.10;99.90;;;;;;1912175;74;25352;-87
2024/04/21 00:33:25;;;;;;;5.43;1.80;;;-2.00;99.90;;;;;;1916458;74;25163;-86
2024/04/21 00:36:14;;;;;;;3.30;1.53;;;-1.90;99.90;;;;;;1915259;74;25197;-86
2024/04/21 00:39:02;;;;;;;3.43;1.80;;;-2.10;99.90;;;;;;1915420;74;25299;-86
2024/04/21 00:41:51;;;;;;;4.93;1.50;;;-2.10;99.90;;;;;;1916194;74;25311;-87
2024/04/21 00:44:40;;;;;;;2.63;1.80;;;-2.10;99.90;;;;;;1913861;74;25265;-86
2024/04/21 00:47:28;;;;;;;4.53;1.50;;;-2.20;99.90;;;;;;1910682;74;25303;-87
2024/04/21 00:50:17;;;;;;;2.17;1.60;;;-2.30;99.90;;;;;;1911442;74;25771;-86
2024/04/21 00:53:07;;;;;;;2.37;1.50;;;-2.50;99.90;;;;;;1912086;74;25254;-86
2024/04/21 00:55:56;;;;;;;2.27;1.30;;;-2.50;99.90;;;;;;1886000;74;25304;-85
2024/04/21 00:58:46;;;;;;;2.40;1.30;;;-2.60;99.90;;;;;;1885493;75;25708;-88
2024/04/21 01:01:35;;;;;;;2.07;1.20;;;-2.60;99.90;;;;;;1891673;74;25227;-87
2024/04/21 01:04:27;;;;;;;3.33;2.00;;;-2.70;99.90;;;;;;1885554;74;25164;-88
2024/04/21 01:07:15;;;;;;;7.23;1.93;;;-2.80;99.90;;;;;;1878000;75;25156;-85
2024/04/21 01:10:05;;;;;;;5.23;1.90;;;-2.80;99.90;;;;;;1886444;76;25296;-88
2024/04/21 01:12:54;;;;;;;4.40;1.77;;;-2.70;99.90;;;;;;1890745;75;25187;-87
2024/04/21 01:15:42;;;;;;;3.83;1.80;;;-2.70;99.90;;;;;;1894508;74;25268;-87
2024/04/21 01:18:31;;;;;;;5.87;2.37;;;-2.60;99.90;;;;;;1909885;74;25866;-87
2024/04/21 01:21:22;;;;;;;4.60;1.90;;;-2.60;99.90;;;;;;1901410;74;25191;-86
2024/04/21 01:24:11;;;;;;;4.67;1.97;;;-2.80;99.90;;;;;;1844161;76;25328;-86
2024/04/21 01:29:46;;;;;;;4.57;2.20;;;-3.00;99.90;;;;;;1957437;72;27636;-86
2024/04/21 01:35:18;;;;;;;6.43;2.00;;;-3.00;99.90;;;;;;1939753;72;27637;-86
2024/04/21 01:38:07;;;;;;;5.77;1.60;;;-3.00;99.90;;;;;;1917829;75;25745;-86
2024/04/21 01:40:56;;;;;;;4.20;1.43;;;-3.00;99.90;;;;;;1899105;75;25267;-86
2024/04/21 01:43:44;;;;;;;2.93;1.50;;;-3.00;99.90;;;;;;1890534;75;25203;-86
2024/04/21 01:46:33;;;;;;;2.33;1.33;;;-3.00;99.90;;;;;;1906283;75;25342;-85
2024/04/21 01:49:22;;;;;;;2.63;1.40;;;-3.00;99.90;;;;;;1904654;75;25261;-86
2024/04/21 01:52:10;;;;;;;1.43;1.20;;;-3.00;99.90;;;;;;1887920;75;25242;-86
2024/04/21 01:54:58;;;;;;;1.03;1.00;;;-2.90;99.90;;;;;;1874775;75;25927;-86
2024/04/21 01:57:47;;;;;;;2.60;1.30;;;-2.80;99.90;;;;;;1882841;76;25250;-84
2024/04/21 02:03:20;;;;;;;1.73;1.20;;;-2.60;99.90;;;;;;1946695;72;26982;-87
2024/04/21 02:06:09;;;;;;;1.13;1.03;;;-2.60;99.90;;;;;;1910105;74;25651;-86
2024/04/21 02:11:38;;;;;;;1.70;1.10;;;-2.70;99.90;;;;;;1946194;72;27547;-86
2024/04/21 02:14:27;;;;;;;2.43;1.20;;;-2.80;99.90;;;;;;1867024;74;25190;-86
2024/04/21 02:17:15;;;;;;;1.60;1.07;;;-2.80;99.90;;;;;;1887828;74;25178;-87
2024/04/21 02:20:06;;;;;;;1.93;1.10;;;-2.80;99.90;;;;;;1882857;74;25207;-87
2024/04/21 02:22:54;;;;;;;1.33;1.20;;;-3.00;99.90;;;;;;1871729;76;25199;-86
2024/04/21 02:25:43;;;;;;;3.67;1.20;;;-3.10;99.90;;;;;;1877233;76;25224;-86
2024/04/21 02:31:15;;;;;;;1.43;1.07;;;-3.10;99.90;;;;;;1936172;72;27029;-86
2024/04/21 02:36:43;;;;;;;1.60;1.20;;;-3.30;99.90;;;;;;1938769;72;27697;-86
2024/04/21 02:39:32;;;;;;;2.47;1.20;;;-3.30;99.90;;;;;;1914224;74;25258;-86
2024/04/21 02:42:21;;;;;;;2.00;1.10;;;-3.30;99.90;;;;;;1898180;74;25226;-87
2024/04/21 02:47:54;;;;;;;1.53;1.20;;;-3.00;99.90;;;;;;1946942;72;27032;-85
2024/04/21 02:50:42;;;;;;;4.07;1.20;;;-2.90;99.90;;;;;;1918609;73;25796;-86
2024/04/21 02:53:30;;;;;;;2.20;1.20;;;-2.90;99.90;;;;;;1920103;73;25317;-85
2024/04/21 02:56:19;;;;;;;0.90;0.90;;;-2.70;99.90;;;;;;1918607;73;25790;-85
2024/04/21 02:59:07;;;;;;;1.20;1.00;;;-2.60;99.90;;;;;;1928657;73;25251;-84
2024/04/21 03:01:56;;;;;;;1.77;1.00;;;-2.60;99.90;;;;;;1918918;73;25835;-86
2024/04/21 03:04:45;;;;;;;2.10;0.90;;;-2.50;99.90;;;;;;1930885;73;25226;-86
2024/04/21 03:07:33;;;;;;;2.03;1.30;;;-2.50;99.90;;;;;;1923028;73;25226;-86
2024/04/21 03:10:22;;;;;;;2.13;1.10;;;-2.40;99.90;;;;;;1937082;73;25157;-84
2024/04/21 03:13:11;;;;;;;1.80;0.97;;;-2.30;99.90;;;;;;1919964;73;25204;-85
2024/04/21 03:16:01;;;;;;;1.77;1.03;;;-2.10;99.90;;;;;;1922140;73;25887;-86
2024/04/21 03:18:50;;;;;;;1.47;1.17;;;-2.00;99.90;;;;;;1935550;73;25278;-86
2024/04/21 03:21:39;;;;;;;1.10;1.00;;;-2.00;99.90;;;;;;1930846;73;25155;-85
2024/04/21 03:24:27;;;;;;;3.17;1.00;;;-1.90;99.90;;;;;;1934040;73;25846;-86
2024/04/21 03:27:16;;;;;;;1.00;1.00;;;-2.00;99.90;;;;;;1935356;73;25166;-86
2024/04/21 03:32:44;;;;;;;0.90;0.90;;;-1.80;99.90;;;;;;1933186;72;27649;-86
2024/04/21 03:35:34;;;;;;;2.27;1.10;;;-1.80;99.90;;;;;;1868620;76;25234;-85
2024/04/21 03:38:23;;;;;;;2.43;1.00;;;-1.70;99.90;;;;;;1834980;76;25726;-85
2024/04/21 03:41:12;;;;;;;1.00;1.00;;;-1.50;99.90;;;;;;1819776;78;25393;-85
2024/04/21 03:44:01;;;;;;;1.00;0.93;;;-1.50;99.90;;;;;;1851733;76;25182;-85
2024/04/21 03:46:49;;;;;;;1.03;0.93;;;-1.50;99.90;;;;;;1848754;76;25280;-85
2024/04/21 03:49:39;;;;;;;5.17;1.30;;;-1.50;99.90;;;;;;1821966;78;25311;-84
2024/04/21 03:52:27;;;;;;;1.97;0.90;;;-1.40;99.90;;;;;;1919069;73;25766;-85
2024/04/21 03:55:16;;;;;;;0.93;0.93;;;-1.40;99.90;;;;;;1912499;73;26659;-86
2024/04/21 03:58:05;;;;;;;1.27;1.13;;;-1.50;99.90;;;;;;1912410;75;25218;-85
2024/04/21 04:00:54;;;;;;;4.93;1.10;;;-1.50;99.90;;;;;;1886796;75;25241;-84
2024/04/21 04:03:43;;;;;;;1.57;1.00;;;-1.50;99.90;;;;;;1896327;75;25210;-87
2024/04/21 04:09:20;;;;;;;0.83;0.70;;;-1.40;99.90;;;;;;1960533;72;26973;-85
2024/04/21 04:14:54;;;;;;;7.23;1.37;;;-1.40;99.90;;;;;;1952693;72;26950;-85
2024/04/21 04:17:42;;;;;;;2.80;1.10;;;-1.40;99.90;;;;;;1896107;73;25257;-85
2024/04/21 04:20:31;;;;;;;1.83;1.20;;;-1.40;99.90;;;;;;1888043;73;25821;-85
2024/04/21 04:23:20;;;;;;;1.17;1.07;;;-1.30;99.90;;;;;;1902134;73;25185;-85
2024/04/21 04:26:08;;;;;;;1.00;1.00;;;-1.30;99.90;;;;;;1906061;75;25348;-87
2024/04/21 04:28:57;;;;;;;3.97;1.00;;;-1.30;99.90;;;;;;1929012;74;25356;-85
2024/04/21 04:31:45;;;;;;;0.80;0.80;;;-1.30;99.90;;;;;;1908461;73;25261;-86
2024/04/21 04:34:34;;;;;;;2.10;1.10;;;-1.30;99.90;;;;;;1850759;76;25279;-84
2024/04/21 04:37:23;;;;;;;3.97;1.03;;;-1.30;99.90;;;;;;1901221;73;25189;-86
2024/04/21 04:40:12;;;;;;;2.27;1.00;;;-1.20;99.90;;;;;;1922186;73;25168;-84
2024/04/21 04:45:47;;;;;;;1.70;1.07;;;-1.10;99.90;;;;;;1964528;72;27028;-85
2024/04/21 04:48:37;;;;;;;1.87;1.10;;;-1.10;99.90;;;;;;1917520;73;25207;-85
2024/04/21 04:51:26;;;;;;;1.40;1.00;;;-1.00;99.90;;;;;;1925039;73;25150;-86
2024/04/21 04:57:03;;;;;;;1.70;1.00;;;-0.80;99.90;;;;;;1965625;72;27090;-86
2024/04/21 04:59:51;;;;;;;3.97;1.20;;;-0.80;99.90;;;;;;1921283;73;25390;-86
2024/04/21 05:02:40;;;;;;;1.03;1.00;;;-0.60;99.90;;;;;;1925446;73;25177;-85
2024/04/21 05:05:28;;;;;;;1.13;1.03;;;-0.40;99.90;;;;;;1924090;73;26692;-85
2024/04/21 05:08:17;;;;;;;1.13;1.03;;;-0.30;99.90;;;;;;1926267;73;25239;-85
2024/04/21 05:11:05;;;;;;;2.57;1.10;;;-0.20;99.90;;;;;;1891969;75;25217;-86
2024/04/21 05:13:55;;;;;;;3.80;1.10;;;-0.10;99.90;;;;;;1930548;73;25237;-85
2024/04/21 05:16:45;;;;;;;1.37;1.00;;;0.00;99.90;;;;;;1926751;73;25170;-85
2024/04/21 05:19:34;;;;;;;1.40;1.30;;;0.10;99.90;;;;;;1925582;73;25239;-85
2024/04/21 05:22:22;;;;;;;2.07;1.50;;;0.10;99.90;;;;;;1925563;73;25276;-85
2024/04/21 05:25:11;;;;;;;2.67;1.50;;;0.20;99.90;;;;;;1929415;73;25260;-85
2024/04/21 05:28:00;;;;;;;3.43;2.00;;;0.20;99.90;;;;;;1923578;73;25679;-85
2024/04/21 05:30:49;;;;;;;2.27;1.33;;;0.30;99.90;;;;;;1924397;73;25235;-85
2024/04/21 05:33:38;;;;;;;3.50;1.80;;;0.50;99.90;;;;;;1925624;73;25251;-85
2024/04/21 05:36:27;;;;;;;1.57;1.47;;;0.80;99.90;;;;;;1926553;73;25283;-86
2024/04/21 05:41:56;;;;;;;2.07;1.10;;;1.20;99.90;;;;;;1945603;71;27488;-86
2024/04/21 05:44:45;;;;;;;1.13;1.07;;;1.20;99.90;;;;;;1937670;73;25296;-86
2024/04/21 05:47:34;;;;;;;1.00;0.90;;;1.20;99.90;;;;;;1931829;73;27076;-86
2024/04/21 05:50:23;;;;;;;1.30;1.17;;;1.50;99.90;;;;;;1926026;73;25207;-86
2024/04/21 05:53:11;;;;;;;0.90;0.90;;;1.80;99.90;;;;;;1935168;72;25259;-86
2024/04/21 05:58:41;;;;;;;0.83;0.83;;;1.60;99.90;;;;;;1939184;72;27386;-86
2024/04/21 06:01:30;;;;;;;0.87;0.87;;;2.10;99.90;;;;;;1934142;72;25220;-86
2024/04/21 06:04:19;;;;;;;1.33;1.17;;;2.40;99.90;;;;;;1895586;73;25216;-86
2024/04/21 06:07:07;;;;;;;2.97;1.00;;;2.30;99.90;;;;;;1869383;76;25263;-86
2024/04/21 06:09:57;;;;;;;1.67;0.87;;;2.10;99.90;;;;;;1891312;74;26976;-86
2024/04/21 06:12:47;;;;;;;1.50;1.00;;;2.30;99.90;;;;;;1863841;74;25237;-86
2024/04/21 06:15:38;;;;;;;2.33;0.93;;;2.90;99.90;;;;;;1890198;73;25280;-86
2024/04/21 06:18:27;;;;;;;1.80;1.00;;;3.30;99.90;;;;;;1862479;76;25313;-86
2024/04/21 06:21:15;;;;;;;0.90;0.90;;;3.20;99.90;;;;;;1897157;73;25345;-86
2024/04/21 06:24:04;;;;;;;1.57;1.10;;;2.50;99.90;;;;;;1871982;74;25893;-86
2024/04/21 06:26:52;;;;;;;1.83;1.17;;;2.50;99.90;;;;;;1899254;74;25328;-85
2024/04/21 06:29:40;;;;;;;1.17;1.07;;;2.70;99.90;;;;;;1871455;76;25262;-85
2024/04/21 06:32:29;;;;;;;2.03;0.90;;;3.20;99.90;;;;;;1896124;73;25815;-86
2024/04/21 06:35:18;;;;;;;1.60;1.10;;;3.60;99.90;;;;;;1847853;76;25314;-85
2024/04/21 06:38:06;;;;;;;2.27;1.10;;;4.10;99.90;;;;;;1871291;74;25874;-85
2024/04/21 06:40:55;;;;;;;1.20;1.10;;;4.30;99.90;;;;;;1901708;73;25156;-85
2024/04/21 06:43:43;;;;;;;1.57;1.10;;;3.80;99.90;;;;;;1863452;74;25260;-85
2024/04/21 06:46:32;;;;;;;1.13;1.00;;;3.30;99.90;;;;;;1895256;75;25311;-86
2024/04/21 06:49:20;;;;;;;3.30;0.97;;;3.70;99.90;;;;;;1898736;75;26516;-87
2024/04/21 06:52:08;;;;;;;1.93;1.20;;;3.70;99.90;;;;;;1900895;74;25711;-87
2024/04/21 06:54:57;;;;;;;1.60;1.00;;;3.60;99.90;;;;;;1894634;74;25266;-86
2024/04/21 06:57:46;;;;;;;3.03;1.10;;;3.70;99.90;;;;;;1855678;75;25802;-87
2024/04/21 07:00:34;;;;;;;3.80;0.90;;;3.90;99.90;;;;;;1947454;72;25299;-87
2024/04/21 07:03:23;;;;;;;3.93;1.23;;;4.10;99.90;;;;;;1935467;72;26003;-87
2024/04/21 07:06:11;;;;;;;1.10;0.70;;;4.00;99.90;;;;;;1934418;73;25169;-87
2024/04/21 07:11:45;;;;;;;0.93;0.93;;;4.10;99.90;;;;;;2020349;69;26963;-87
2024/04/21 07:14:34;;;;;;;2.30;1.33;;;4.20;99.90;;;;;;1973533;72;25289;-87
2024/04/21 07:17:23;;;;;;;1.10;1.00;;;4.40;99.90;;;;;;1980671;70;25216;-87
2024/04/21 07:20:12;;;;;;;2.43;1.10;;;4.60;99.90;;;;;;1974788;72;25192;-87
2024/04/21 07:25:47;;;;;;;0.97;0.87;;;4.90;99.90;;;;;;1944065;72;26903;-87
2024/04/21 07:28:36;;;;;;;0.93;0.53;;;4.90;99.90;;;;;;1930388;73;25310;-86
2024/04/21 07:34:07;;;;;;;2.17;1.20;;;5.00;99.90;;;;;;1966315;71;27748;-87
2024/04/21 07:36:57;;;;;;;1.60;1.00;;;4.80;99.90;;;;;;1911351;73;25201;-88
2024/04/21 07:39:46;;;;;;;0.63;0.63;;;5.00;99.90;;;;;;1906774;73;26106;-86
2024/04/21 07:42:34;;;;;;;0.90;0.87;;;5.00;99.90;;;;;;1912255;73;25253;-86
2024/04/21 07:45:23;;;;;;;0.87;0.87;;;4.70;99.90;;;;;;1900428;73;25233;-86
2024/04/21 07:48:12;;;;;;;1.00;1.00;;;4.80;99.90;;;;;;1904076;73;26437;-86
2024/04/21 07:51:00;;;;;;;0.70;0.70;;;4.90;99.90;;;;;;1909519;73;25276;-86
2024/04/21 07:53:48;;;;;;;4.63;1.07;;;4.70;99.90;;;;;;1908319;73;25184;-86
2024/04/21 07:56:37;;;;;;;2.43;1.03;;;4.70;99.90;;;;;;1943083;72;25204;-85
2024/04/21 08:02:06;;;;;;;0.83;0.83;;;4.90;99.90;;;;;;1937031;72;27042;-87
2024/04/21 08:04:57;;;;;;;3.77;1.80;;;4.60;99.90;;;;;;1905279;74;25666;-87
2024/04/21 08:07:45;;;;;;;1.50;1.30;;;4.70;99.90;;;;;;1907865;74;25313;-85
2024/04/21 08:10:33;;;;;;;1.40;1.27;;;4.90;99.90;;;;;;1901626;73;25207;-88
2024/04/21 08:13:22;;;;;;;3.20;0.97;;;4.60;99.90;;;;;;1904053;74;25930;-88
2024/04/21 08:16:11;;;;;;;3.23;1.10;;;4.70;99.90;;;;;;1910127;73;25630;-86
2024/04/21 08:19:00;;;;;;;0.93;0.70;;;4.90;99.90;;;;;;1911601;74;25293;-88
2024/04/21 08:21:49;;;;;;;2.40;1.00;;;4.70;99.90;;;;;;1910786;74;25348;-86
2024/04/21 08:24:40;;;;;;;5.07;1.20;;;4.40;99.90;;;;;;1903600;73;25263;-86
2024/04/21 08:27:28;;;;;;;0.50;0.50;;;4.50;99.90;;;;;;1901356;73;25358;-86
2024/04/21 08:30:17;;;;;;;1.20;1.10;;;4.70;99.90;;;;;;1907824;74;25226;-88
2024/04/21 08:33:06;;;;;;;1.77;1.00;;;4.60;99.90;;;;;;1910456;74;25154;-88
2024/04/21 08:35:56;;;;;;;0.93;0.93;;;4.60;99.90;;;;;;1908228;74;25229;-86
2024/04/21 08:38:45;;;;;;;1.30;1.10;;;4.90;99.90;;;;;;1900851;73;25299;-86
2024/04/21 08:44:32;;;;;;;1.53;1.07;;;4.60;99.90;;;;;;1943811;72;27074;-87
2024/04/21 08:47:21;;;;;;;0.73;0.73;;;4.40;99.90;;;;;;1927158;73;25675;-86
2024/04/21 08:52:53;;;;;;;1.30;1.20;;;4.50;99.90;;;;;;1932725;72;27724;-86
2024/04/21 08:58:31;;;;;;;1.17;1.07;;;4.50;99.90;;;;;;1950709;72;26965;-86
2024/04/21 09:01:22;;;;;;;1.50;1.10;;;5.10;99.90;;;;;;1935902;72;25731;-86
2024/04/21 09:04:11;;;;;;;1.03;0.97;;;5.10;99.90;;;;;;1935963;73;25150;-83
2024/04/21 09:09:39;;;;;;;0.83;0.80;;;4.80;99.90;;;;;;1915383;72;27124;-84
2024/04/21 09:12:30;;;;;;;2.07;1.20;;;4.80;99.90;;;;;;1879419;76;25206;-84
2024/04/21 09:15:19;;;;;;;0.80;0.80;;;5.10;99.90;;;;;;1862684;76;25357;-84
2024/04/21 09:18:08;;;;;;;2.30;1.10;;;4.80;99.90;;;;;;1844501;76;25253;-84
2024/04/21 09:20:58;;;;;;;1.40;1.30;;;4.90;99.90;;;;;;1848758;76;25784;-85
2024/04/21 09:23:48;;;;;;;1.40;1.00;;;4.90;99.90;;;;;;1870523;76;25257;-83
2024/04/21 09:26:36;;;;;;;3.93;1.27;;;5.10;99.90;;;;;;1869937;76;25815;-85
2024/04/21 09:29:25;;;;;;;2.73;1.00;;;4.70;99.90;;;;;;1866178;76;25183;-83
2024/04/21 09:32:16;;;;;;;0.93;0.73;;;4.70;99.90;;;;;;1873967;76;25175;-83
2024/04/21 09:35:06;;;;;;;6.13;1.37;;;5.00;99.90;;;;;;1846525;76;25216;-84
2024/04/21 09:37:57;;;;;;;1.20;1.10;;;5.30;99.90;;;;;;1859450;76;25848;-84
2024/04/21 09:43:32;;;;;;;2.10;1.00;;;5.60;99.90;;;;;;1908198;73;27515;-84
2024/04/21 09:46:21;;;;;;;0.70;0.70;;;5.20;99.90;;;;;;1894486;73;25218;-83
2024/04/21 09:51:50;;;;;;;0.80;0.80;;;5.30;99.90;;;;;;1945119;72;27641;-85
2024/04/21 09:54:42;;;;;;;0.77;0.70;;;5.00;99.90;;;;;;1890803;75;25246;-85
2024/04/21 10:00:18;;;;;;;0.83;0.83;;;5.20;99.90;;;;;;1942011;72;27126;-85
2024/04/21 10:05:52;;;;;;;9.20;1.63;;;4.90;99.90;;;;;;1946512;72;26916;-85
2024/04/21 10:08:41;;;;;;;2.00;0.90;;;5.00;99.90;;;;;;1938969;73;25274;-84
2024/04/21 10:11:29;;;;;;;1.33;1.13;;;5.40;99.90;;;;;;1934374;73;25709;-84
2024/04/21 10:14:19;;;;;;;1.17;1.00;;;5.50;99.90;;;;;;1941030;72;25219;-83
2024/04/21 10:17:07;;;;;;;0.80;0.80;;;5.80;99.90;;;;;;1945226;72;25308;-83
2024/04/21 10:20:04;;;;;;;0.80;0.80;;;6.00;99.90;;;;;;1944516;73;25261;-85
2024/04/21 10:22:53;;;;;;;2.67;1.00;;;6.00;99.90;;;;;;1932093;72;25226;-85
2024/04/21 10:25:43;;;;;;;1.90;1.20;;;6.20;99.90;;;;;;1901876;75;25419;-86
2024/04/21 10:31:18;;;;;;;1.23;1.13;;;5.90;99.90;;;;;;1928718;72;28075;-85
2024/04/21 10:36:58;;;;;;;1.00;1.00;;;5.80;99.90;;;;;;1942289;72;27085;-85
2024/04/21 10:39:48;;;;;;;3.37;1.20;;;5.60;99.90;;;;;;1936412;73;25192;-86
2024/04/21 10:42:37;;;;;;;1.40;1.07;;;6.00;99.90;;;;;;1907853;75;25258;-85
2024/04/21 10:45:28;;;;;;;2.00;1.20;;;6.10;99.90;;;;;;1917211;73;25677;-86
2024/04/21 10:48:17;;;;;;;2.67;1.10;;;5.90;99.90;;;;;;1872286;76;25174;-85
2024/04/21 10:51:09;;;;;;;1.67;0.80;;;5.70;99.90;;;;;;1806763;78;25210;-84
2024/04/21 10:53:57;;;;;;;0.87;0.87;;;6.00;99.90;;;;;;1920189;73;25306;-86
2024/04/21 10:56:49;;;;;;;0.57;0.57;;;6.10;99.90;;;;;;1905419;75;25257;-84
2024/04/21 11:02:19;;;;;;;0.70;0.70;;;6.10;99.90;;;;;;1957974;72;26947;-86
2024/04/21 11:05:07;;;;;;;1.17;1.00;;;6.10;99.90;;;;;;1927096;72;25250;-83
2024/04/21 11:07:57;;;;;;;0.80;0.80;;;6.20;99.90;;;;;;1921097;73;25207;-86
2024/04/21 11:10:45;;;;;;;4.13;1.30;;;6.60;99.90;;;;;;1920009;72;25162;-87
2024/04/21 11:13:35;;;;;;;1.70;1.00;;;6.30;99.90;;;;;;1927592;73;25280;-85
2024/04/21 11:19:08;;;;;;;3.73;0.93;;;6.10;99.90;;;;;;1940131;72;27501;-87
2024/04/21 11:22:01;;;;;;;0.80;0.80;;;6.30;99.90;;;;;;1901645;74;25210;-84
2024/04/21 11:27:37;;;;;;;0.80;0.80;;;5.90;99.90;;;;;;1941900;72;27005;-85
2024/04/21 11:30:28;;;;;;;1.27;0.90;;;5.90;99.90;;;;;;1857995;76;25751;-86
2024/04/21 11:33:17;;;;;;;1.17;1.00;;;5.80;99.90;;;;;;1882513;76;25214;-85
2024/04/21 11:36:12;;;;;;;1.03;0.90;;;5.70;99.90;;;;;;1905649;73;25248;-84
2024/04/21 11:41:46;;;;;;;1.50;1.10;;;5.80;99.90;;;;;;1952778;72;27483;-86
2024/04/21 11:44:36;;;;;;;0.90;0.90;;;6.10;99.90;;;;;;1928086;73;25259;-84
2024/04/21 11:47:26;;;;;;;1.90;1.30;;;6.20;99.90;;;;;;1926667;73;25644;-86
2024/04/21 11:50:18;;;;;;;0.80;0.80;;;6.30;99.90;;;;;;1936422;73;25200;-84
2024/04/21 11:53:11;;;;;;;0.83;0.70;;;6.40;99.90;;;;;;1922758;73;25155;-85
2024/04/21 11:58:37;;;;;;;7.23;1.20;;;6.20;99.90;;;;;;1959293;72;26611;-87
2024/04/21 12:04:16;;;;;;;5.10;1.00;;;6.50;98.90;;;;;;1944440;72;27558;-87
2024/04/21 12:07:09;;;;;;;0.80;0.80;;;6.50;99.90;;;;;;1915438;72;25170;-86
2024/04/21 12:10:03;;;;;;;4.80;0.87;;;6.70;99.90;;;;;;1961575;72;25707;-86
2024/04/21 12:12:52;;;;;;;8.13;1.10;;;6.60;99.10;;;;;;1949582;72;25215;-86
2024/04/21 12:15:41;;;;;;;1.43;1.10;;;6.90;99.90;;;;;;1946870;73;25225;-86
2024/04/21 12:18:32;;;;;;;1.73;1.00;;;6.80;99.90;;;;;;1953166;72;25218;-87
2024/04/21 12:21:22;;;;;;;0.70;0.70;;;6.80;99.30;;;;;;1946839;72;25257;-88
2024/04/21 12:24:11;;;;;;;1.40;0.60;;;6.40;99.90;;;;;;1943963;72;25253;-87
2024/04/21 12:27:03;;;;;;;1.03;0.90;;;6.20;99.90;;;;;;1935128;72;25209;-87
2024/04/21 12:29:52;;;;;;;1.13;1.03;;;6.30;99.90;;;;;;1939795;73;25146;-87
2024/04/21 12:32:40;;;;;;;0.73;0.73;;;6.30;99.90;;;;;;1942014;72;25240;-86
2024/04/21 12:35:33;;;;;;;0.80;0.80;;;6.30;99.90;;;;;;1929777;72;25695;-85
2024/04/21 12:38:23;;;;;;;0.80;0.80;;;6.40;99.90;;;;;;1941770;72;25267;-85
2024/04/21 12:41:12;;;;;;;0.67;0.57;;;6.70;99.90;;;;;;1933878;73;25178;-86
2024/04/21 12:46:41;;;;;;;2.17;0.93;;;6.60;99.10;;;;;;1939291;72;27067;-86
2024/04/21 12:49:30;;;;;;;2.23;1.20;;;6.60;99.90;;;;;;1915489;74;26093;-86
2024/04/21 12:52:19;;;;;;;3.13;1.07;;;6.60;99.90;;;;;;1911954;74;25339;-86
2024/04/21 12:55:10;;;;;;;0.80;0.80;;;6.60;99.90;;;;;;1879572;74;25226;-86
2024/04/21 12:57:59;;;;;;;0.80;0.73;;;6.70;99.90;;;;;;1882390;76;25205;-86
2024/04/21 13:00:48;;;;;;;1.87;0.77;;;6.60;99.90;;;;;;1874561;76;25265;-86
2024/04/21 13:03:36;;;;;;;0.90;0.90;;;6.60;99.90;;;;;;1862360;75;25218;-86
2024/04/21 13:06:25;;;;;;;0.70;0.70;;;6.70;99.90;;;;;;1879871;75;25267;-86
2024/04/21 13:09:13;;;;;;;0.93;0.67;;;7.10;99.90;;;;;;1863764;75;25192;-86
2024/04/21 13:12:02;;;;;;;0.70;0.70;;;6.70;99.90;;;;;;1875536;75;25379;-86
2024/04/21 13:14:54;;;;;;;1.37;0.77;;;6.90;99.90;;;;;;1884853;75;25224;-86
2024/04/21 13:17:44;;;;;;;2.73;0.90;;;7.20;99.90;;;;;;1885609;75;25372;-85
2024/04/21 13:20:31;;;;;;;1.10;1.00;;;6.70;99.00;;;;;;1881590;76;25249;-86
2024/04/21 13:23:21;;;;;;;0.97;0.83;;;6.40;98.20;;;;;;1877215;76;26028;-85
2024/04/21 13:28:48;;;;;;;1.00;0.90;;;6.70;99.90;;;;;;1943936;72;26973;-86
2024/04/21 13:31:37;;;;;;;2.03;0.77;;;6.70;98.40;;;;;;1918668;73;25219;-85
2024/04/21 13:34:27;;;;;;;0.80;0.80;;;6.50;98.80;;;;;;1881421;75;25284;-85
2024/04/21 13:37:15;;;;;;;0.93;0.93;;;6.50;99.70;;;;;;1934074;73;25271;-85
2024/04/21 13:40:08;;;;;;;1.13;1.07;;;6.70;98.80;;;;;;1938859;73;25278;-85
2024/04/21 13:42:57;;;;;;;1.30;1.20;;;7.00;99.90;;;;;;1929667;73;25592;-85
2024/04/21 13:45:46;;;;;;;0.70;0.70;;;7.00;98.30;;;;;;1930051;73;25703;-86
2024/04/21 13:48:35;;;;;;;0.87;0.83;;;6.70;97.70;;;;;;1931354;73;25629;-85
2024/04/21 13:51:25;;;;;;;0.60;0.60;;;6.50;98.50;;;;;;1921974;73;25691;-86
2024/04/21 13:54:14;;;;;;;1.43;1.03;;;6.80;99.90;;;;;;1924030;73;25192;-85
2024/04/21 13:57:02;;;;;;;1.23;0.90;;;6.80;98.90;;;;;;1880365;75;25244;-86
2024/04/21 13:59:51;;;;;;;1.80;1.00;;;6.70;97.50;;;;;;1839843;77;25313;-86
2024/04/21 14:02:39;;;;;;;0.97;0.83;;;6.70;99.00;;;;;;1879390;75;25249;-86
2024/04/21 14:08:14;;;;;;;0.90;0.90;;;6.80;98.80;;;;;;1966035;72;27461;-87
2024/04/21 14:11:03;;;;;;;3.23;1.20;;;7.00;98.40;;;;;;1925334;73;25282;-86
2024/04/21 14:16:32;;;;;;;3.13;1.03;;;6.70;98.30;;;;;;1898031;74;27102;-87
2024/04/21 14:19:20;;;;;;;0.83;0.83;;;6.80;98.80;;;;;;1845595;77;25234;-87
2024/04/21 14:22:10;;;;;;;1.17;0.80;;;7.10;99.90;;;;;;1821953;77;25181;-87
2024/04/21 14:24:58;;;;;;;1.00;0.90;;;7.00;98.70;;;;;;1840690;77;25226;-87
2024/04/21 14:27:48;;;;;;;1.00;1.00;;;6.80;99.90;;;;;;1835559;77;25228;-87
2024/04/21 14:30:40;;;;;;;1.20;1.10;;;6.70;99.80;;;;;;1827994;77;25257;-87
2024/04/21 14:33:28;;;;;;;2.53;0.90;;;6.90;99.30;;;;;;1827296;77;25225;-87
2024/04/21 14:36:17;;;;;;;1.60;0.87;;;6.90;99.90;;;;;;1825456;77;25241;-86
2024/04/21 14:39:06;;;;;;;1.03;1.00;;;7.10;99.90;;;;;;1825865;77;25370;-86
2024/04/21 14:41:54;;;;;;;1.63;1.13;;;7.10;99.90;;;;;;1820318;77;25208;-86
2024/04/21 14:44:50;;;;;;;1.20;1.07;;;7.10;99.90;;;;;;1823721;77;25271;-86
2024/04/21 14:47:36;;;;;;;1.70;1.27;;;7.10;98.70;;;;;;1822068;77;25271;-86
2024/04/21 14:53:10;;;;;;;7.37;1.10;;;7.20;99.90;;;;;;1929860;72;27260;-86
2024/04/21 14:56:00;;;;;;;4.93;1.20;;;7.10;99.70;;;;;;1895383;75;25646;-85
2024/04/21 15:01:28;;;;;;;1.17;0.90;;;6.90;99.40;;;;;;1940856;72;27515;-86
2024/04/21 15:04:17;;;;;;;0.93;0.73;;;7.20;98.60;;;;;;1970324;72;25244;-86
2024/04/21 15:07:06;;;;;;;1.63;1.00;;;7.00;99.00;;;;;;1939537;72;25148;-86
2024/04/21 15:09:54;;;;;;;0.60;0.60;;;7.10;99.90;;;;;;1930407;72;25639;-87
2024/04/21 15:12:43;;;;;;;2.07;0.83;;;7.20;99.60;;;;;;1939114;73;25208;-86
2024/04/21 15:15:32;;;;;;;1.50;1.10;;;7.00;99.50;;;;;;1910781;73;25238;-86
2024/04/21 15:21:06;;;;;;;1.07;1.00;;;7.10;99.90;;;;;;1941850;72;26995;-87
2024/04/21 15:23:54;;;;;;;1.93;0.83;;;7.10;99.90;;;;;;1920561;73;25174;-87
2024/04/21 15:26:43;;;;;;;1.23;1.10;;;7.20;99.10;;;;;;1921824;73;25265;-87
2024/04/21 15:29:32;;;;;;;0.90;0.90;;;7.30;99.20;;;;;;1925665;73;25242;-86
2024/04/21 15:35:07;;;;;;;2.63;1.20;;;7.10;99.20;;;;;;1948465;72;27045;-87
2024/04/21 15:37:55;;;;;;;1.03;0.90;;;7.20;99.90;;;;;;1930979;73;25213;-86
2024/04/21 15:40:43;;;;;;;0.87;0.87;;;7.10;99.20;;;;;;1923187;73;25277;-85
2024/04/21 15:46:12;;;;;;;1.20;1.10;;;7.00;99.90;;;;;;1905274;74;26993;-86
2024/04/21 15:51:42;;;;;;;1.50;1.00;;;6.90;98.90;;;;;;1934131;72;27605;-86
2024/04/21 15:54:32;;;;;;;1.03;0.97;;;7.10;98.50;;;;;;1904449;74;25283;-86
2024/04/21 15:57:20;;;;;;;1.83;1.10;;;7.20;99.60;;;;;;1903863;75;25515;-87
2024/04/21 16:00:11;;;;;;;1.40;1.20;;;7.10;99.20;;;;;;1909217;75;25716;-86
2024/04/21 16:03:00;;;;;;;2.13;1.20;;;6.90;99.90;;;;;;1892075;75;25659;-86
2024/04/21 16:05:48;;;;;;;1.00;0.90;;;6.90;98.90;;;;;;1909640;75;25340;-88
2024/04/21 16:11:17;;;;;;;3.20;1.00;;;7.00;99.10;;;;;;1932484;72;27685;-84
2024/04/21 16:14:05;;;;;;;1.13;1.10;;;7.10;99.30;;;;;;1910647;74;25931;-86
2024/04/21 16:16:55;;;;;;;1.17;1.07;;;7.10;99.20;;;;;;1916940;74;25251;-86
2024/04/21 16:19:47;;;;;;;3.17;1.17;;;7.00;98.70;;;;;;1895461;74;25781;-85
2024/04/21 16:22:38;;;;;;;1.60;1.00;;;7.00;99.40;;;;;;1903323;74;25193;-89
2024/04/21 16:25:27;;;;;;;0.80;0.80;;;7.00;99.50;;;;;;1913648;74;25786;-85
2024/04/21 16:28:15;;;;;;;1.20;1.10;;;7.10;99.90;;;;;;1900622;74;25315;-86
2024/04/21 16:31:04;;;;;;;0.90;0.90;;;7.10;99.90;;;;;;1909799;74;25245;-85
2024/04/21 16:33:54;;;;;;;0.90;0.90;;;7.10;99.90;;;;;;1904070;75;25217;-85
2024/04/21 16:36:44;;;;;;;1.33;1.10;;;6.90;99.90;;;;;;1919723;73;25613;-85
2024/04/21 16:39:35;;;;;;;1.23;1.00;;;6.80;99.90;;;;;;1917236;74;25772;-85
2024/04/21 16:42:25;;;;;;;0.80;0.80;;;6.90;99.90;;;;;;1917542;74;25265;-85
2024/04/21 16:45:15;;;;;;;1.40;1.30;;;6.70;99.90;;;;;;1912831;74;25289;-84
2024/04/21 16:50:48;;;;;;;2.87;1.37;;;6.80;99.90;;;;;;1933873;72;26695;-86
2024/04/21 16:59:07;;;;;;;1.17;1.10;;;7.20;99.90;;;;;;1947709;72;27033;-85
2024/04/21 17:01:56;;;;;;;2.07;1.30;;;7.10;99.90;;;;;;1935323;73;25158;-86